Time;durP1;ratioP1;P1;durP2;ratioP2;P2;SDS_P1;SDS_P2;PMS_P1;PMS_P2;Temp;Humidity;BMP_temperature;BMP_pressure;BME280_temperature;BME280_humidity;BME280_pressure;Samples;Min_cycle;Max_cycle;Signal;HPM_P1;HPM_P2
2021/06/05 00:02:24;;;;;;;9.25;5.88;;;;;;;;;;5022609;28;20025;-61
2021/06/05 00:04:53;;;;;;;9.27;5.68;;;;;;;;;;5002969;28;20052;-61
2021/06/05 00:07:18;;;;;;;8.53;6.03;;;;;;;;;;5001916;28;20069;-61
2021/06/05 00:09:44;;;;;;;7.75;5.75;;;;;;;;;;5003337;28;20424;-61
2021/06/05 00:12:11;;;;;;;6.75;5.35;;;;;;;;;;5003636;28;20019;-61
2021/06/05 00:14:37;;;;;;;7.07;5.35;;;;;;;;;;5008659;28;20036;-61
2021/06/05 00:17:03;;;;;;;8.40;6.22;;;;;;;;;;5000487;28;20022;-61
2021/06/05 00:19:28;;;;;;;7.63;6.18;;;;;;;;;;5002809;28;20033;-61
2021/06/05 00:21:54;;;;;;;10.70;6.05;;;;;;;;;;5001885;28;20084;-61
2021/06/05 00:24:22;;;;;;;9.23;5.63;;;;;;;;;;4998651;28;20447;-61
2021/06/05 00:26:48;;;;;;;8.27;5.88;;;;;;;;;;5003288;28;20060;-61
2021/06/05 00:29:14;;;;;;;7.85;5.18;;;;;;;;;;5007805;28;20504;-61
2021/06/05 00:31:39;;;;;;;8.05;5.25;;;;;;;;;;5001053;28;20517;-61
2021/06/05 00:34:05;;;;;;;6.25;4.55;;;;;;;;;;5005641;28;20053;-61
2021/06/05 00:36:31;;;;;;;6.32;4.55;;;;;;;;;;5002612;28;20053;-61
2021/06/05 00:38:56;;;;;;;6.47;4.25;;;;;;;;;;5001098;28;20029;-60
2021/06/05 00:41:25;;;;;;;8.02;4.68;;;;;;;;;;4999603;28;20050;-61
2021/06/05 00:43:52;;;;;;;5.90;4.30;;;;;;;;;;5002374;28;20385;-61
2021/06/05 00:46:20;;;;;;;6.30;4.43;;;;;;;;;;5005625;28;20611;-60
2021/06/05 00:48:46;;;;;;;6.63;4.90;;;;;;;;;;4998203;28;20143;-62
2021/06/05 00:51:13;;;;;;;5.88;4.30;;;;;;;;;;4999397;28;20065;-60
2021/06/05 00:53:39;;;;;;;5.05;4.13;;;;;;;;;;5003401;28;20026;-62
2021/06/05 00:56:09;;;;;;;6.35;3.17;;;;;;;;;;5002365;28;20048;-61
2021/06/05 00:58:34;;;;;;;4.80;3.28;;;;;;;;;;5000791;28;20029;-61
2021/06/05 01:01:26;;;;;;;4.93;2.75;;;;;;;;;;5006892;28;20381;-61
2021/06/05 01:03:53;;;;;;;4.03;3.28;;;;;;;;;;5002300;28;20030;-61
2021/06/05 01:06:24;;;;;;;4.32;2.70;;;;;;;;;;4997692;28;20113;-61
2021/06/05 01:08:59;;;;;;;4.30;2.58;;;;;;;;;;5002809;28;20053;-61
2021/06/05 01:11:50;;;;;;;5.30;2.10;;;;;;;;;;5008477;28;20044;-62
2021/06/05 01:14:24;;;;;;;4.47;2.17;;;;;;;;;;4997799;28;20184;-61
2021/06/05 01:16:55;;;;;;;3.60;2.00;;;;;;;;;;4998274;28;20057;-61
2021/06/05 01:19:34;;;;;;;2.70;1.80;;;;;;;;;;5004589;28;20107;-61
2021/06/05 01:22:18;;;;;;;3.25;1.83;;;;;;;;;;5019034;28;20033;-61
2021/06/05 01:25:08;;;;;;;1.73;1.60;;;;;;;;;;4998440;28;20080;-61
2021/06/05 01:27:43;;;;;;;2.90;1.90;;;;;;;;;;5004691;28;20067;-61
2021/06/05 01:30:20;;;;;;;3.50;1.98;;;;;;;;;;4997070;28;20018;-62
2021/06/05 01:32:46;;;;;;;2.65;1.90;;;;;;;;;;4999739;28;20037;-62
2021/06/05 01:35:15;;;;;;;2.70;1.85;;;;;;;;;;4998921;28;20030;-60
2021/06/05 01:37:42;;;;;;;2.80;2.15;;;;;;;;;;5002200;28;20034;-61
2021/06/05 01:40:11;;;;;;;3.30;1.77;;;;;;;;;;5004969;28;20025;-61
2021/06/05 01:42:39;;;;;;;2.70;2.10;;;;;;;;;;5000431;28;20544;-61
2021/06/05 01:45:10;;;;;;;2.72;1.98;;;;;;;;;;5001490;28;20116;-60
2021/06/05 01:47:37;;;;;;;4.70;1.80;;;;;;;;;;5000404;28;20093;-61
2021/06/05 01:50:06;;;;;;;2.75;1.85;;;;;;;;;;5000909;28;20431;-60
2021/06/05 01:52:35;;;;;;;2.17;1.88;;;;;;;;;;5001131;28;20033;-61
2021/06/05 01:55:11;;;;;;;3.03;1.70;;;;;;;;;;5001809;28;20377;-60
2021/06/05 01:57:40;;;;;;;3.00;1.95;;;;;;;;;;4997684;28;20491;-60
2021/06/05 02:00:18;;;;;;;2.35;1.58;;;;;;;;;;5000617;28;20426;-61
2021/06/05 02:02:43;;;;;;;2.03;1.73;;;;;;;;;;5005328;28;20574;-61
2021/06/05 02:05:09;;;;;;;1.80;1.60;;;;;;;;;;4998334;28;20052;-60
2021/06/05 02:07:35;;;;;;;2.83;1.48;;;;;;;;;;5002108;28;20022;-60
2021/06/05 02:10:00;;;;;;;1.92;1.73;;;;;;;;;;5001779;28;20072;-60
2021/06/05 02:12:27;;;;;;;2.78;1.48;;;;;;;;;;4999173;28;20095;-60
2021/06/05 02:15:05;;;;;;;1.85;1.40;;;;;;;;;;4999013;28;20045;-60
2021/06/05 02:17:33;;;;;;;4.40;1.58;;;;;;;;;;5000799;28;20111;-61
2021/06/05 02:20:09;;;;;;;2.47;2.05;;;;;;;;;;5000789;28;20022;-61
2021/06/05 02:22:36;;;;;;;3.53;1.75;;;;;;;;;;4998786;28;20069;-61
2021/06/05 02:25:05;;;;;;;2.72;1.60;;;;;;;;;;5005639;28;20452;-61
2021/06/05 02:27:31;;;;;;;1.75;1.40;;;;;;;;;;5003628;28;20038;-61
2021/06/05 02:29:58;;;;;;;1.50;1.23;;;;;;;;;;4997271;28;20455;-60
2021/06/05 02:32:28;;;;;;;2.40;1.80;;;;;;;;;;5000076;28;20057;-60
2021/06/05 02:34:55;;;;;;;;;;;;;;;;;;5001885;28;20050;-60
2021/06/05 02:37:24;;;;;;;4.82;1.50;;;;;;;;;;5000702;28;20397;-60
2021/06/05 02:39:57;;;;;;;2.28;1.50;;;;;;;;;;5000570;28;20060;-60
2021/06/05 02:42:25;;;;;;;2.55;1.65;;;;;;;;;;5005133;28;20253;-60
2021/06/05 02:44:54;;;;;;;3.80;1.80;;;;;;;;;;5006751;28;20026;-60
2021/06/05 02:47:21;;;;;;;2.78;1.60;;;;;;;;;;4996399;28;20077;-60
2021/06/05 02:49:48;;;;;;;1.77;1.63;;;;;;;;;;5004176;28;20466;-60
2021/06/05 02:52:34;;;;;;;4.50;2.00;;;;;;;;;;5000640;28;20097;-60
2021/06/05 02:55:06;;;;;;;2.67;1.55;;;;;;;;;;5007543;28;20030;-60
2021/06/05 02:57:32;;;;;;;4.03;1.65;;;;;;;;;;4997686;28;20034;-60
2021/06/05 02:59:57;;;;;;;4.65;1.60;;;;;;;;;;4999560;28;20041;-60
2021/06/05 03:02:23;;;;;;;2.78;1.50;;;;;;;;;;5002020;28;20030;-60
2021/06/05 03:04:49;;;;;;;2.78;1.45;;;;;;;;;;5009413;28;20068;-60
2021/06/05 03:07:15;;;;;;;2.00;1.20;;;;;;;;;;5005131;28;20025;-60
2021/06/05 03:09:41;;;;;;;2.58;1.35;;;;;;;;;;5020477;28;20484;-60
2021/06/05 03:12:10;;;;;;;1.92;1.48;;;;;;;;;;5016317;28;20033;-60
2021/06/05 03:14:36;;;;;;;2.97;1.55;;;;;;;;;;5002585;28;20121;-60
2021/06/05 03:17:02;;;;;;;2.53;1.48;;;;;;;;;;5008883;28;20042;-60
2021/06/05 03:19:28;;;;;;;5.25;1.40;;;;;;;;;;5004361;28;20049;-60
2021/06/05 03:21:53;;;;;;;2.83;1.58;;;;;;;;;;5002875;28;20307;-61
2021/06/05 03:24:19;;;;;;;1.85;1.30;;;;;;;;;;5001729;28;20400;-60
2021/06/05 03:26:44;;;;;;;3.15;1.45;;;;;;;;;;5004271;28;20033;-60
2021/06/05 03:29:09;;;;;;;2.40;1.20;;;;;;;;;;5002208;28;21009;-60
2021/06/05 03:31:35;;;;;;;3.28;1.65;;;;;;;;;;5001866;28;20422;-61
2021/06/05 03:34:01;;;;;;;3.15;1.38;;;;;;;;;;5003960;28;20117;-60
2021/06/05 03:36:26;;;;;;;4.28;1.35;;;;;;;;;;5003005;28;20100;-60
2021/06/05 03:38:52;;;;;;;3.33;1.42;;;;;;;;;;5009271;28;20024;-60
2021/06/05 03:41:18;;;;;;;1.83;1.30;;;;;;;;;;5004471;28;20056;-60
2021/06/05 03:43:43;;;;;;;2.65;1.30;;;;;;;;;;5002470;28;20484;-60
2021/06/05 03:46:09;;;;;;;1.88;1.33;;;;;;;;;;5003695;28;20038;-60
2021/06/05 03:48:36;;;;;;;4.07;1.40;;;;;;;;;;5000838;28;20029;-60
2021/06/05 03:51:03;;;;;;;2.10;1.30;;;;;;;;;;5003430;28;20049;-60
2021/06/05 03:53:29;;;;;;;2.50;1.50;;;;;;;;;;5008263;28;20149;-60
2021/06/05 03:55:55;;;;;;;2.47;1.40;;;;;;;;;;5001493;28;20144;-60
2021/06/05 03:58:36;;;;;;;1.45;1.35;;;;;;;;;;5007028;28;20499;-60
2021/06/05 04:01:02;;;;;;;3.10;1.30;;;;;;;;;;5004030;28;20465;-59
2021/06/05 04:03:28;;;;;;;2.97;1.38;;;;;;;;;;5003044;28;20026;-61
2021/06/05 04:05:53;;;;;;;2.83;1.50;;;;;;;;;;5003062;28;20758;-61
2021/06/05 04:08:18;;;;;;;1.73;1.52;;;;;;;;;;5002089;28;20046;-61
2021/06/05 04:10:44;;;;;;;2.33;1.30;;;;;;;;;;5004209;28;20041;-61
2021/06/05 04:13:09;;;;;;;5.05;1.55;;;;;;;;;;5000037;28;20030;-60
2021/06/05 04:15:35;;;;;;;1.88;1.33;;;;;;;;;;5007730;28;20499;-61
2021/06/05 04:18:13;;;;;;;2.20;1.50;;;;;;;;;;5006197;28;20488;-61
2021/06/05 04:20:40;;;;;;;4.72;1.60;;;;;;;;;;5004505;28;20025;-61
2021/06/05 04:23:08;;;;;;;1.65;1.48;;;;;;;;;;5000222;28;20049;-60
2021/06/05 04:25:33;;;;;;;1.92;1.42;;;;;;;;;;5003470;28;20064;-61
2021/06/05 04:27:59;;;;;;;5.97;2.92;;;;;;;;;;4999366;28;20054;-61
2021/06/05 04:30:28;;;;;;;3.63;2.13;;;;;;;;;;5000492;28;20124;-61
2021/06/05 04:32:53;;;;;;;3.30;1.75;;;;;;;;;;5004308;28;20034;-61
2021/06/05 04:35:19;;;;;;;1.55;1.45;;;;;;;;;;5004508;28;20025;-60
2021/06/05 04:37:45;;;;;;;2.28;1.33;;;;;;;;;;4995894;28;20080;-61
2021/06/05 04:40:12;;;;;;;2.08;1.40;;;;;;;;;;5002660;28;20049;-61
2021/06/05 04:42:37;;;;;;;3.05;1.55;;;;;;;;;;5003937;28;20076;-61
2021/06/05 04:45:04;;;;;;;4.47;1.85;;;;;;;;;;4999570;28;20497;-60
2021/06/05 04:47:30;;;;;;;4.22;2.30;;;;;;;;;;4999411;28;20026;-61
2021/06/05 04:49:55;;;;;;;2.70;1.90;;;;;;;;;;5005103;28;20420;-61
2021/06/05 04:52:21;;;;;;;2.05;1.48;;;;;;;;;;4996396;28;20034;-61
2021/06/05 04:54:46;;;;;;;2.45;1.45;;;;;;;;;;5002786;28;20026;-61
2021/06/05 04:57:12;;;;;;;2.45;1.48;;;;;;;;;;5001386;28;20018;-61
2021/06/05 04:59:37;;;;;;;2.30;1.50;;;;;;;;;;5000240;28;20124;-61
2021/06/05 05:02:03;;;;;;;2.33;1.40;;;;;;;;;;5001891;28;20037;-61
2021/06/05 05:04:29;;;;;;;1.70;1.40;;;;;;;;;;5000532;28;20109;-61
2021/06/05 05:06:54;;;;;;;3.15;1.67;;;;;;;;;;4999540;28;20049;-61
2021/06/05 05:09:19;;;;;;;5.07;1.67;;;;;;;;;;5001695;28;20133;-60
2021/06/05 05:11:45;;;;;;;3.65;1.80;;;;;;;;;;5005730;28;20034;-60
2021/06/05 05:14:11;;;;;;;2.78;1.75;;;;;;;;;;5000987;28;20029;-60
2021/06/05 05:16:37;;;;;;;3.70;2.42;;;;;;;;;;5006955;28;20036;-60
2021/06/05 05:19:04;;;;;;;2.42;1.75;;;;;;;;;;4998005;28;20038;-60
2021/06/05 05:21:30;;;;;;;3.03;2.10;;;;;;;;;;5001802;28;20057;-60
2021/06/05 05:23:56;;;;;;;2.95;1.55;;;;;;;;;;5004109;28;20054;-60
2021/06/05 05:26:22;;;;;;;5.57;2.45;;;;;;;;;;5004711;28;20113;-60
2021/06/05 05:28:53;;;;;;;17.83;11.02;;;;;;;;;;4998480;28;20032;-60
2021/06/05 05:31:21;;;;;;;12.05;7.50;;;;;;;;;;5004036;28;20030;-60
2021/06/05 05:33:46;;;;;;;5.45;3.17;;;;;;;;;;5000324;28;20029;-60
2021/06/05 05:36:19;;;;;;;3.70;2.20;;;;;;;;;;4999098;28;20149;-60
2021/06/05 05:38:44;;;;;;;3.45;2.20;;;;;;;;;;5001277;28;20108;-60
2021/06/05 05:41:14;;;;;;;3.67;1.90;;;;;;;;;;5000829;28;20109;-60
2021/06/05 05:43:39;;;;;;;2.50;1.63;;;;;;;;;;5000746;28;20030;-60
2021/06/05 05:46:05;;;;;;;2.50;1.90;;;;;;;;;;5000037;28;20113;-60
2021/06/05 05:48:35;;;;;;;2.20;1.60;;;;;;;;;;5004181;28;20030;-60
2021/06/05 05:51:00;;;;;;;2.17;1.60;;;;;;;;;;4999847;28;20503;-60
2021/06/05 05:53:26;;;;;;;2.47;1.60;;;;;;;;;;5000718;28;20023;-60
2021/06/05 05:55:52;;;;;;;3.53;1.83;;;;;;;;;;5000194;28;20112;-60
2021/06/05 05:58:21;;;;;;;3.22;1.75;;;;;;;;;;5008934;28;20041;-60
2021/06/05 06:00:48;;;;;;;4.40;1.67;;;;;;;;;;5004155;28;20369;-60
2021/06/05 06:03:15;;;;;;;4.35;1.80;;;;;;;;;;5000278;28;20073;-60
2021/06/05 06:05:41;;;;;;;2.55;1.92;;;;;;;;;;5002983;28;20034;-60
2021/06/05 06:08:09;;;;;;;2.88;1.65;;;;;;;;;;5004259;28;20040;-60
2021/06/05 06:10:35;;;;;;;6.10;1.73;;;;;;;;;;4996848;28;20431;-60
2021/06/05 06:13:01;;;;;;;2.47;1.65;;;;;;;;;;5001704;28;20333;-60
2021/06/05 06:15:28;;;;;;;3.45;1.92;;;;;;;;;;5007844;28;20092;-60
2021/06/05 06:17:54;;;;;;;2.28;1.60;;;;;;;;;;4998997;28;20057;-59
2021/06/05 06:20:28;;;;;;;2.55;1.60;;;;;;;;;;5000382;28;20101;-59
2021/06/05 06:22:54;;;;;;;6.40;1.63;;;;;;;;;;5006045;28;20030;-59
2021/06/05 06:25:29;;;;;;;4.78;1.80;;;;;;;;;;5015183;28;20046;-60
2021/06/05 06:27:54;;;;;;;4.60;1.85;;;;;;;;;;4999915;28;20030;-59
2021/06/05 06:30:24;;;;;;;5.57;2.17;;;;;;;;;;4999492;28;20582;-59
2021/06/05 06:32:53;;;;;;;3.15;1.60;;;;;;;;;;5007245;28;20085;-59
2021/06/05 06:35:29;;;;;;;5.03;1.77;;;;;;;;;;4998542;28;20034;-59
2021/06/05 06:37:55;;;;;;;2.78;1.85;;;;;;;;;;5000628;28;20029;-61
2021/06/05 06:40:24;;;;;;;6.07;3.42;;;;;;;;;;5003733;28;20026;-61
2021/06/05 06:42:50;;;;;;;7.10;3.20;;;;;;;;;;5003989;28;20030;-62
2021/06/05 06:45:16;;;;;;;6.07;3.13;;;;;;;;;;4997662;28;20061;-62
2021/06/05 06:47:41;;;;;;;3.88;2.30;;;;;;;;;;5005269;28;20026;-61
2021/06/05 06:50:10;;;;;;;2.95;1.92;;;;;;;;;;5004785;28;20045;-63
2021/06/05 06:52:35;;;;;;;3.72;1.85;;;;;;;;;;5000111;28;20029;-63
2021/06/05 06:55:01;;;;;;;7.45;1.80;;;;;;;;;;5004166;28;20421;-61
2021/06/05 06:57:27;;;;;;;1.63;1.52;;;;;;;;;;5010183;28;20080;-61
2021/06/05 06:59:52;;;;;;;2.35;1.40;;;;;;;;;;4998123;28;20445;-61
2021/06/05 07:02:18;;;;;;;2.80;1.48;;;;;;;;;;5009305;28;20064;-59
2021/06/05 07:04:43;;;;;;;2.83;1.50;;;;;;;;;;5005031;28;20034;-61
2021/06/05 07:07:09;;;;;;;3.67;1.80;;;;;;;;;;5003511;28;20034;-61
2021/06/05 07:09:34;;;;;;;2.05;1.70;;;;;;;;;;5003772;28;20493;-59
2021/06/05 07:12:01;;;;;;;2.67;1.90;;;;;;;;;;5004149;28;20515;-60
2021/06/05 07:14:27;;;;;;;5.78;1.70;;;;;;;;;;5010976;28;20064;-59
2021/06/05 07:16:52;;;;;;;2.15;1.38;;;;;;;;;;5004344;28;20058;-60
2021/06/05 07:19:18;;;;;;;2.88;1.70;;;;;;;;;;5009191;28;20056;-62
2021/06/05 07:21:44;;;;;;;2.20;1.50;;;;;;;;;;5002452;28;20084;-61
2021/06/05 07:24:10;;;;;;;3.35;1.75;;;;;;;;;;5005230;28;20464;-61
2021/06/05 07:26:36;;;;;;;1.67;1.40;;;;;;;;;;5001628;28;20041;-60
2021/06/05 07:29:05;;;;;;;2.13;1.67;;;;;;;;;;5004344;28;20022;-60
2021/06/05 07:31:45;;;;;;;5.22;1.80;;;;;;;;;;5005922;28;20026;-60
2021/06/05 07:34:11;;;;;;;2.35;1.33;;;;;;;;;;5001169;28;20125;-60
2021/06/05 07:36:40;;;;;;;2.55;1.50;;;;;;;;;;5003797;28;20087;-60
2021/06/05 07:39:09;;;;;;;6.35;2.83;;;;;;;;;;5008295;28;20504;-59
2021/06/05 07:41:35;;;;;;;4.57;2.80;;;;;;;;;;5002235;28;20030;-62
2021/06/05 07:44:01;;;;;;;2.30;1.65;;;;;;;;;;5005087;28;20331;-61
2021/06/05 07:46:27;;;;;;;1.52;1.00;;;;;;;;;;5007968;28;20061;-61
2021/06/05 07:48:52;;;;;;;1.23;0.98;;;;;;;;;;5004132;28;20034;-61
2021/06/05 07:51:18;;;;;;;1.45;1.00;;;;;;;;;;4999477;28;20038;-61
2021/06/05 07:53:47;;;;;;;2.00;1.10;;;;;;;;;;5003760;28;20033;-60
2021/06/05 07:56:12;;;;;;;1.80;1.48;;;;;;;;;;5005989;28;20123;-61
2021/06/05 07:58:38;;;;;;;7.57;2.80;;;;;;;;;;5001857;28;20492;-60
2021/06/05 08:01:04;;;;;;;2.22;1.70;;;;;;;;;;5000641;28;20492;-60
2021/06/05 08:03:30;;;;;;;1.67;1.30;;;;;;;;;;4999504;28;20258;-61
2021/06/05 08:05:56;;;;;;;1.98;1.38;;;;;;;;;;5002573;28;20026;-60
2021/06/05 08:08:22;;;;;;;2.03;1.30;;;;;;;;;;4999390;28;20032;-61
2021/06/05 08:10:47;;;;;;;3.63;1.85;;;;;;;;;;5006549;28;20472;-61
2021/06/05 08:13:13;;;;;;;4.10;1.50;;;;;;;;;;5003225;28;20028;-60
2021/06/05 08:15:45;;;;;;;2.75;1.77;;;;;;;;;;5006874;28;20540;-61
2021/06/05 08:18:12;;;;;;;2.53;1.30;;;;;;;;;;5002874;28;20037;-60
2021/06/05 08:20:43;;;;;;;2.00;1.10;;;;;;;;;;5002718;28;20037;-60
2021/06/05 08:23:09;;;;;;;6.53;1.52;;;;;;;;;;5000877;28;20045;-60
2021/06/05 08:25:35;;;;;;;2.05;0.98;;;;;;;;;;5008981;28;20059;-60
2021/06/05 08:28:02;;;;;;;2.53;1.40;;;;;;;;;;5001155;28;20117;-59
2021/06/05 08:30:34;;;;;;;2.58;1.15;;;;;;;;;;5006347;28;20042;-60
2021/06/05 08:33:00;;;;;;;1.92;1.08;;;;;;;;;;5000866;28;20014;-60
2021/06/05 08:35:27;;;;;;;2.28;1.27;;;;;;;;;;5004174;28;20559;-60
2021/06/05 08:37:52;;;;;;;2.70;1.30;;;;;;;;;;5002147;28;20435;-60
2021/06/05 08:40:25;;;;;;;1.67;1.15;;;;;;;;;;5002415;28;20038;-60
2021/06/05 08:42:52;;;;;;;2.40;1.10;;;;;;;;;;4999531;28;20072;-61
2021/06/05 08:45:28;;;;;;;2.70;1.42;;;;;;;;;;5001954;28;20105;-61
2021/06/05 08:47:54;;;;;;;3.00;1.10;;;;;;;;;;4999934;28;20045;-61
2021/06/05 08:50:25;;;;;;;2.47;1.40;;;;;;;;;;5006438;28;20032;-61
2021/06/05 08:53:11;;;;;;;3.15;1.10;;;;;;;;;;5004271;28;20148;-59
2021/06/05 08:55:44;;;;;;;2.17;1.10;;;;;;;;;;5002822;28;20073;-60
2021/06/05 08:58:29;;;;;;;2.83;1.23;;;;;;;;;;5003621;28;20026;-61
2021/06/05 09:01:12;;;;;;;2.40;1.55;;;;;;;;;;4998311;28;20038;-60
2021/06/05 09:03:39;;;;;;;3.38;1.90;;;;;;;;;;5002827;28;20033;-61
2021/06/05 09:06:07;;;;;;;3.10;1.80;;;;;;;;;;5000250;28;20494;-61
2021/06/05 09:08:33;;;;;;;3.08;1.35;;;;;;;;;;4998849;28;20407;-61
2021/06/05 09:11:01;;;;;;;5.75;1.90;;;;;;;;;;5001699;28;20032;-61
2021/06/05 09:13:27;;;;;;;4.90;2.05;;;;;;;;;;5016859;28;20018;-61
2021/06/05 09:16:20;;;;;;;3.75;1.70;;;;;;;;;;5007501;28;20030;-60
2021/06/05 09:18:52;;;;;;;3.05;1.98;;;;;;;;;;5001011;28;20046;-61
2021/06/05 09:21:33;;;;;;;1.60;1.23;;;;;;;;;;5000284;28;20026;-61
2021/06/05 09:24:18;;;;;;;4.55;1.63;;;;;;;;;;5000844;28;20026;-60
2021/06/05 09:27:02;;;;;;;5.63;1.70;;;;;;;;;;4994397;28;20107;-60
2021/06/05 09:29:29;;;;;;;2.08;1.60;;;;;;;;;;5016243;28;20373;-61
2021/06/05 09:32:00;;;;;;;2.40;1.60;;;;;;;;;;5002998;28;20038;-61
2021/06/05 09:34:35;;;;;;;5.18;2.50;;;;;;;;;;5001805;28;20037;-61
2021/06/05 09:37:02;;;;;;;3.95;1.92;;;;;;;;;;5001465;28;20026;-61
2021/06/05 09:39:42;;;;;;;3.53;2.10;;;;;;;;;;4999889;28;20037;-61
2021/06/05 09:42:25;;;;;;;4.72;1.73;;;;;;;;;;5007155;28;20496;-61
2021/06/05 09:44:51;;;;;;;7.03;2.78;;;;;;;;;;5001593;28;20400;-61
2021/06/05 09:47:16;;;;;;;5.45;3.08;;;;;;;;;;4999696;28;20029;-61
2021/06/05 09:49:47;;;;;;;5.50;2.38;;;;;;;;;;5004249;28;20029;-61
2021/06/05 09:52:21;;;;;;;3.25;1.85;;;;;;;;;;5002342;28;20026;-61
2021/06/05 09:54:49;;;;;;;3.88;2.25;;;;;;;;;;5001625;28;20029;-61
2021/06/05 09:57:30;;;;;;;3.72;1.88;;;;;;;;;;5000375;28;20492;-61
2021/06/05 10:00:05;;;;;;;5.65;4.28;;;;;;;;;;4999859;28;20042;-61
2021/06/05 10:02:33;;;;;;;3.25;2.00;;;;;;;;;;5000956;28;20036;-62
2021/06/05 10:05:07;;;;;;;2.85;1.90;;;;;;;;;;4999127;28;20034;-59
2021/06/05 10:07:32;;;;;;;2.17;1.88;;;;;;;;;;5007134;28;20026;-61
2021/06/05 10:10:08;;;;;;;2.95;1.70;;;;;;;;;;4999579;28;20033;-62
2021/06/05 10:12:37;;;;;;;2.15;1.55;;;;;;;;;;4996334;28;20026;-62
2021/06/05 10:15:11;;;;;;;;;;;;;;;;;;5002287;28;20034;-59
2021/06/05 10:17:58;;;;;;;4.10;1.98;;;;;;;;;;5002280;28;19913;-62
2021/06/05 10:20:45;;;;;;;2.95;1.90;;;;;;;;;;4999986;28;20674;-62
2021/06/05 10:23:14;;;;;;;2.63;2.20;;;;;;;;;;4998587;28;20080;-60
2021/06/05 10:25:47;;;;;;;4.88;2.03;;;;;;;;;;5001022;28;20036;-60
2021/06/05 10:28:20;;;;;;;2.45;1.90;;;;;;;;;;5006030;28;20053;-60
2021/06/05 10:30:57;;;;;;;3.55;3.00;;;;;;;;;;5014419;28;20026;-62
2021/06/05 10:33:32;;;;;;;2.85;1.90;;;;;;;;;;4999906;28;20026;-59
2021/06/05 10:35:59;;;;;;;4.55;2.00;;;;;;;;;;5000697;28;20396;-61
2021/06/05 10:38:42;;;;;;;3.28;2.30;;;;;;;;;;4997883;28;20032;-60
2021/06/05 10:41:13;;;;;;;2.88;2.33;;;;;;;;;;5002998;28;20144;-60
2021/06/05 10:43:39;;;;;;;3.17;2.15;;;;;;;;;;5002525;28;20046;-61
2021/06/05 10:46:25;;;;;;;3.47;2.00;;;;;;;;;;4994652;28;20030;-61
2021/06/05 10:48:51;;;;;;;3.67;2.00;;;;;;;;;;4997744;28;20028;-60
2021/06/05 10:51:25;;;;;;;2.30;1.85;;;;;;;;;;5001265;28;20050;-62
2021/06/05 10:53:51;;;;;;;2.30;1.83;;;;;;;;;;5001460;28;20034;-62
2021/06/05 10:56:30;;;;;;;3.03;1.95;;;;;;;;;;4998996;28;20502;-61
2021/06/05 10:58:56;;;;;;;4.55;2.13;;;;;;;;;;5000167;28;20471;-61
2021/06/05 11:01:22;;;;;;;2.70;1.70;;;;;;;;;;5000703;28;20054;-61
2021/06/05 11:04:28;;;;;;;2.50;1.70;;;;;;;;;;4999203;28;20061;-61
2021/06/05 11:07:02;;;;;;;3.20;2.08;;;;;;;;;;4991972;28;20419;-61
2021/06/05 11:09:30;;;;;;;2.55;1.67;;;;;;;;;;5004057;28;20495;-61
2021/06/05 11:12:04;;;;;;;3.27;2.07;;;;;;;;;;4995692;28;20134;-61
2021/06/05 11:14:35;;;;;;;4.15;2.20;;;;;;;;;;5000874;28;20452;-61
2021/06/05 11:17:01;;;;;;;2.17;1.88;;;;;;;;;;5002217;28;20076;-61
2021/06/05 11:19:39;;;;;;;3.45;1.38;;;;;;;;;;5000002;28;20030;-61
2021/06/05 11:22:15;;;;;;;2.10;1.42;;;;;;;;;;4995329;28;20038;-61
2021/06/05 11:24:44;;;;;;;2.45;1.70;;;;;;;;;;4997678;28;20126;-61
2021/06/05 11:27:35;;;;;;;1.83;1.50;;;;;;;;;;4996076;28;20492;-61
2021/06/05 11:30:05;;;;;;;2.50;1.30;;;;;;;;;;4992846;28;20053;-60
2021/06/05 11:32:32;;;;;;;2.20;1.40;;;;;;;;;;5000903;28;20110;-60
2021/06/05 11:35:00;;;;;;;1.75;1.27;;;;;;;;;;5009546;28;20060;-61
2021/06/05 11:37:34;;;;;;;3.55;1.50;;;;;;;;;;4997568;28;20033;-61
2021/06/05 11:40:06;;;;;;;1.80;1.58;;;;;;;;;;5003089;28;20036;-61
2021/06/05 11:42:31;;;;;;;2.13;1.48;;;;;;;;;;5009970;28;20025;-61
2021/06/05 11:44:56;;;;;;;1.75;1.10;;;;;;;;;;5001652;28;20542;-61
2021/06/05 11:47:22;;;;;;;0.80;0.80;;;;;;;;;;5002527;28;20034;-61
2021/06/05 11:50:10;;;;;;;1.88;1.08;;;;;;;;;;5003167;28;20026;-61
2021/06/05 11:52:35;;;;;;;1.03;1.00;;;;;;;;;;5003200;28;20503;-61
2021/06/05 11:55:14;;;;;;;2.25;1.27;;;;;;;;;;5002912;28;20089;-60
2021/06/05 11:57:55;;;;;;;1.92;1.27;;;;;;;;;;5002407;28;20111;-61
2021/06/05 12:00:23;;;;;;;1.10;0.95;;;;;;;;;;5007122;28;20519;-62
2021/06/05 12:02:59;;;;;;;1.63;1.17;;;;;;;;;;4996249;28;20034;-61
2021/06/05 12:05:32;;;;;;;2.58;1.00;;;;;;;;;;5004088;28;20272;-61
2021/06/05 12:07:57;;;;;;;1.48;1.13;;;;;;;;;;5002828;28;20545;-61
2021/06/05 12:10:38;;;;;;;1.95;0.90;;;;;;;;;;5001781;28;20109;-61
2021/06/05 12:13:06;;;;;;;1.50;1.30;;;;;;;;;;5000420;28;20022;-61
2021/06/05 12:15:36;;;;;;;1.85;1.00;;;;;;;;;;5008110;28;20030;-61
2021/06/05 12:18:06;;;;;;;1.35;0.85;;;;;;;;;;5003440;28;20025;-61
2021/06/05 12:20:40;;;;;;;2.33;1.10;;;;;;;;;;5000866;28;20041;-60
2021/06/05 12:23:30;;;;;;;1.20;1.00;;;;;;;;;;5002877;28;20031;-61
2021/06/05 12:26:10;;;;;;;1.20;1.00;;;;;;;;;;5006715;28;20055;-61
2021/06/05 12:28:44;;;;;;;0.82;0.82;;;;;;;;;;4997895;28;20034;-61
2021/06/05 12:31:25;;;;;;;2.30;1.00;;;;;;;;;;5001203;28;20105;-61
2021/06/05 12:34:25;;;;;;;1.90;0.80;;;;;;;;;;5007920;28;20550;-61
2021/06/05 12:36:56;;;;;;;2.53;0.90;;;;;;;;;;5001402;28;20030;-61
2021/06/05 12:39:34;;;;;;;1.23;0.80;;;;;;;;;;5001657;28;20037;-62
2021/06/05 12:41:59;;;;;;;2.47;2.28;;;;;;;;;;5004481;28;20087;-61
2021/06/05 12:44:35;;;;;;;2.95;2.72;;;;;;;;;;5004250;28;20045;-61
2021/06/05 12:47:07;;;;;;;1.25;1.00;;;;;;;;;;4999345;28;20523;-61
2021/06/05 12:49:35;;;;;;;4.35;0.80;;;;;;;;;;5000772;28;20734;-62
2021/06/05 12:52:05;;;;;;;0.93;0.85;;;;;;;;;;5003872;28;20026;-61
2021/06/05 12:54:37;;;;;;;1.23;0.82;;;;;;;;;;4999205;28;20021;-61
2021/06/05 12:57:31;;;;;;;0.80;0.80;;;;;;;;;;4999604;28;20045;-61
2021/06/05 12:59:56;;;;;;;1.45;0.88;;;;;;;;;;5001476;28;20395;-60
2021/06/05 13:02:31;;;;;;;1.45;1.10;;;;;;;;;;4999941;28;20092;-60
2021/06/05 13:05:11;;;;;;;2.20;1.27;;;;;;;;;;5005345;28;20549;-60
2021/06/05 13:07:41;;;;;;;1.83;1.20;;;;;;;;;;5006991;28;20076;-60
2021/06/05 13:10:25;;;;;;;2.53;1.75;;;;;;;;;;5002123;28;20111;-60
2021/06/05 13:13:15;;;;;;;3.00;1.88;;;;;;;;;;5007285;28;20104;-60
2021/06/05 13:15:46;;;;;;;3.95;1.40;;;;;;;;;;5004457;28;20555;-60
2021/06/05 13:18:25;;;;;;;2.30;1.60;;;;;;;;;;5008804;28;20067;-60
2021/06/05 13:20:55;;;;;;;2.47;1.40;;;;;;;;;;5006285;28;20117;-61
2021/06/05 13:23:35;;;;;;;1.52;1.20;;;;;;;;;;5001778;28;20088;-61
2021/06/05 13:26:26;;;;;;;2.03;1.48;;;;;;;;;;5001856;28;20060;-59
2021/06/05 13:28:53;;;;;;;1.77;1.20;;;;;;;;;;4999936;28;20105;-62
2021/06/05 13:31:40;;;;;;;3.25;1.77;;;;;;;;;;5007767;28;20121;-62
2021/06/05 13:34:17;;;;;;;3.67;2.00;;;;;;;;;;5002089;28;20558;-62
2021/06/05 13:36:45;;;;;;;3.05;1.45;;;;;;;;;;5000076;28;20034;-61
2021/06/05 13:39:14;;;;;;;3.40;1.50;;;;;;;;;;4993688;28;20030;-62
2021/06/05 13:41:40;;;;;;;;;;;;;;;;;;5004558;28;20337;-61
2021/06/05 13:44:07;;;;;;;1.50;0.88;;;;;;;;;;4999052;28;19917;-61
2021/06/05 13:46:33;;;;;;;0.90;0.90;;;;;;;;;;5000002;28;20483;-62
2021/06/05 13:48:59;;;;;;;1.20;0.63;;;;;;;;;;5000636;28;20038;-61
2021/06/05 13:51:25;;;;;;;1.02;0.70;;;;;;;;;;5000605;28;20030;-61
2021/06/05 13:53:51;;;;;;;0.88;0.70;;;;;;;;;;4998591;28;20273;-60
2021/06/05 13:56:19;;;;;;;0.80;0.70;;;;;;;;;;5005005;28;20049;-61
2021/06/05 13:58:45;;;;;;;0.80;0.80;;;;;;;;;;5007580;28;20458;-61
2021/06/05 14:01:12;;;;;;;1.63;0.85;;;;;;;;;;5001062;28;20025;-61
2021/06/05 14:03:38;;;;;;;0.65;0.65;;;;;;;;;;5000044;28;20043;-61
2021/06/05 14:06:06;;;;;;;2.30;0.80;;;;;;;;;;5000658;28;20029;-61
2021/06/05 14:08:31;;;;;;;0.80;0.80;;;;;;;;;;5001702;28;20038;-60
2021/06/05 14:10:57;;;;;;;1.73;1.50;;;;;;;;;;4998824;28;20025;-60
2021/06/05 14:13:26;;;;;;;2.10;1.40;;;;;;;;;;5000731;28;20097;-60
2021/06/05 14:15:55;;;;;;;2.67;1.02;;;;;;;;;;5003543;28;20027;-62
2021/06/05 14:18:25;;;;;;;0.80;0.80;;;;;;;;;;5001178;28;20026;-60
2021/06/05 14:20:54;;;;;;;1.20;0.80;;;;;;;;;;5003401;28;20388;-60
2021/06/05 14:23:22;;;;;;;1.17;0.80;;;;;;;;;;5005952;28;20607;-61
2021/06/05 14:25:48;;;;;;;0.70;0.70;;;;;;;;;;5001124;28;20806;-61
2021/06/05 14:28:14;;;;;;;1.38;0.80;;;;;;;;;;4998965;28;20136;-61
2021/06/05 14:30:46;;;;;;;2.35;0.85;;;;;;;;;;5003484;28;20381;-61
2021/06/05 14:33:13;;;;;;;0.80;0.80;;;;;;;;;;5015163;28;20516;-62
2021/06/05 14:35:39;;;;;;;0.98;0.88;;;;;;;;;;4999948;28;20113;-62
2021/06/05 14:38:07;;;;;;;1.10;0.70;;;;;;;;;;5004925;28;20042;-62
2021/06/05 14:40:33;;;;;;;1.75;1.20;;;;;;;;;;5000257;28;20023;-61
2021/06/05 14:42:59;;;;;;;4.10;2.53;;;;;;;;;;4997465;28;20023;-61
2021/06/05 14:45:30;;;;;;;2.53;0.90;;;;;;;;;;4998698;28;20737;-62
2021/06/05 14:47:55;;;;;;;0.63;0.60;;;;;;;;;;5006610;28;20030;-62
2021/06/05 14:50:22;;;;;;;1.30;0.90;;;;;;;;;;4999170;28;20112;-62
2021/06/05 14:52:48;;;;;;;0.70;0.70;;;;;;;;;;4995719;28;20038;-62
2021/06/05 14:55:16;;;;;;;0.70;0.70;;;;;;;;;;5002653;28;20105;-62
2021/06/05 14:57:42;;;;;;;0.80;0.70;;;;;;;;;;4999298;28;20551;-62
2021/06/05 15:00:09;;;;;;;1.50;0.82;;;;;;;;;;4997988;28;20129;-62